메인 페이지
METAR-TAF:

METAR-TAF

공항 :

Oxnard Airport

옥스나드, 캘리포니아, 미국

위도: 34-12-02N, 경도: 119-12-11W, 고도: 13m

현재 날씨관측

예보는 1 시간 3분 전, 18:51시(UTC)에 발표되었습니다.
남서6kt
온도 18°C
습도 77%
기압 1016 hPa
시정: 8.0km
고도 1300ft 상공 흐림
연무

METAR: KOXR 131851Z 22006KT 5SM HZ OVC013 18/14 A3001 RMK AO2 SLP161 T01780139 $

시각: 12:54 (19:54 UTC)

예보

예보는 2 시간 34분 전, 17:20시(UTC)에 발표되었습니다.
예보 대상 시간: 13일 18시부터 14일 18시까지 (UTC)
6kt
시정: 10km
고도 2000ft 상공 구름 많음
13일 2200시부터 (UTC)
12kt
시정: 10km
고도 2500ft 상공 구름 보통
14일 0200시부터 (UTC)
서남서6kt
시정: 10km
고도 700ft 상공 구름 많음
14일 0500시부터 (UTC)
여러 방향의 바람 3kt
시정: 6.4km
고도 400ft 상공 흐림
박무
14일 1600시부터 (UTC)
여러 방향의 바람 3kt
시정: 10km
고도 700ft 상공 흐림

TAF: KOXR 131720Z 1318/1418 26006KT P6SM BKN020 FM132200 26012KT P6SM SCT025 FM140200 25006KT P6SM BKN007 FM140500 VRB03KT 4SM BR OVC004 FM141600 VRB03KT P6SM OVC007

4,000개 이상의 공항 관측 자료 및 예보 (METAR 및 TAF 보고).

지도상에서 검색 가능한 기상관측소가 노란 점과 빨간 점으로 표시되어 있습니다.

기상관측소 명을 보려면 표시 위로 마우스를 이동하세요.

날씨 관측과 예보를 보려면 클릭하세요.

지도 변경 : 확대하려면 엑스 표시가 있는 녹색 버튼, 축소하려면 빼기 표시가 있는 녹색 버튼, 다음 페이지의 지도를 보려면 녹색 화살표를 클릭하세요.


METAR-TAF: